Bay City, Wisconsin
Current Conditions -  °F | °C
As of 3:31 AM on Sunday 26 Oct 2014 (Local Time) from KRGK Reporting Station
Clear Clear  
Wind Chill: 30°   Ceiling: Unl
Heat Index: 30°   Visibility: 10mi
Dew Point: 28°   Wind: 0mph
Humidity: 93%   Direction: NA
Pressure: 30.03"   Gusts: NA
Location:  44.59°N, 92.45°W
Report Text: KRGK 260831Z AUTO 00000KT 10SM CLR M01/M02 A3003 RMK AO2
Loading
Personal Weather Stations






























Interactive Weather Map
Tropical Storm Tracking
New forecast layout! Learn more

10-Day Weather Forecast

Advertisements
Track Severe Weather on mobile